createdAt,value
2019-04-30T00:01:25.263Z,21.40
2019-04-30T00:04:16.321Z,23.63
2019-04-30T00:06:45.433Z,23.30
2019-04-30T00:09:19.007Z,23.10
2019-04-30T00:11:50.665Z,23.07
2019-04-30T00:14:18.915Z,24.67
2019-04-30T00:16:49.840Z,23.80
2019-04-30T00:19:19.780Z,23.87
2019-04-30T00:21:56.930Z,21.73
2019-04-30T00:24:22.409Z,20.83
2019-04-30T00:26:55.016Z,21.20
2019-04-30T00:29:27.994Z,20.93
2019-04-30T00:31:57.757Z,22.60
2019-04-30T00:34:26.356Z,19.23
2019-04-30T00:36:56.244Z,17.07
2019-04-30T00:39:27.068Z,18.77
2019-04-30T00:41:57.840Z,15.90
2019-04-30T00:44:28.281Z,15.57
2019-04-30T00:47:00.656Z,14.83
2019-04-30T00:49:29.122Z,15.47
2019-04-30T00:51:58.333Z,13.90
2019-04-30T00:54:30.717Z,14.20
2019-04-30T00:57:03.769Z,12.40
2019-04-30T00:59:30.604Z,12.40
2019-04-30T01:02:30.800Z,11.00
2019-04-30T01:05:00.161Z,11.63
2019-04-30T01:07:26.568Z,10.83
2019-04-30T01:09:57.680Z,10.67
2019-04-30T01:12:29.660Z,9.83
2019-04-30T01:14:59.016Z,11.90
2019-04-30T01:17:29.858Z,10.93
2019-04-30T01:19:59.245Z,13.33
2019-04-30T01:22:32.737Z,13.60
2019-04-30T01:25:02.906Z,13.50
2019-04-30T01:27:31.596Z,13.10
2019-04-30T01:30:00.629Z,8.37
2019-04-30T01:32:29.507Z,9.00
2019-04-30T01:34:58.980Z,8.90
2019-04-30T01:37:29.587Z,9.20
2019-04-30T01:39:58.908Z,7.90
2019-04-30T01:42:30.328Z,8.17
2019-04-30T01:44:59.180Z,7.50
2019-04-30T01:47:30.789Z,7.60
2019-04-30T01:50:04.721Z,7.10
2019-04-30T01:52:51.179Z,6.47
2019-04-30T01:55:21.847Z,7.00
2019-04-30T01:58:15.864Z,7.40
2019-04-30T02:00:51.198Z,7.00
2019-04-30T02:03:20.159Z,7.87
2019-04-30T02:05:50.038Z,7.57
2019-04-30T02:08:19.496Z,8.57
2019-04-30T02:10:51.122Z,9.13
2019-04-30T02:13:19.322Z,8.23
2019-04-30T02:15:49.198Z,9.50
2019-04-30T02:18:19.499Z,8.40
2019-04-30T02:20:49.852Z,9.00
2019-04-30T02:23:19.598Z,9.00
2019-04-30T02:25:49.106Z,8.70
2019-04-30T02:28:19.011Z,7.70
2019-04-30T02:30:50.499Z,8.53
2019-04-30T02:33:20.229Z,8.03
2019-04-30T02:36:05.381Z,9.40
2019-04-30T02:38:36.366Z,8.97
2019-04-30T02:41:09.642Z,10.50
2019-04-30T02:43:41.140Z,8.73
2019-04-30T02:46:11.991Z,8.67
2019-04-30T02:48:43.024Z,9.53
2019-04-30T02:51:14.089Z,9.73
2019-04-30T02:54:23.947Z,10.80
2019-04-30T02:57:11.679Z,9.83
2019-04-30T03:00:00.059Z,9.60
2019-04-30T03:02:32.144Z,10.70
2019-04-30T03:05:02.123Z,11.20
2019-04-30T03:07:31.068Z,10.83
2019-04-30T03:10:00.129Z,11.77
2019-04-30T03:12:33.103Z,11.90
2019-04-30T03:15:00.425Z,11.87
2019-04-30T03:17:45.814Z,12.43
2019-04-30T03:20:40.262Z,11.60
2019-04-30T03:23:09.829Z,11.30
2019-04-30T03:25:40.537Z,10.90
2019-04-30T03:28:09.810Z,11.40
2019-04-30T03:30:42.062Z,9.90
2019-04-30T03:33:12.872Z,9.47
2019-04-30T03:35:46.633Z,10.23
2019-04-30T03:38:10.710Z,8.93
2019-04-30T03:40:40.603Z,8.83
2019-04-30T03:43:10.353Z,8.10
2019-04-30T03:45:40.261Z,8.77
2019-04-30T03:48:10.142Z,9.03
2019-04-30T03:50:50.286Z,7.27
2019-04-30T03:53:10.483Z,7.63
2019-04-30T03:55:39.974Z,7.00
2019-04-30T03:58:09.417Z,7.20
2019-04-30T04:00:51.405Z,6.10
2019-04-30T04:03:20.276Z,7.03
2019-04-30T04:06:11.200Z,7.17
2019-04-30T04:08:49.127Z,6.03
2019-04-30T04:11:22.698Z,6.17
2019-04-30T04:13:51.602Z,6.30
2019-04-30T04:16:20.483Z,5.73
2019-04-30T04:18:50.085Z,5.20
2019-04-30T04:21:20.691Z,5.63
2019-04-30T04:23:50.752Z,4.33
2019-04-30T04:26:20.267Z,5.33
2019-04-30T04:28:49.761Z,5.30
2019-04-30T04:31:19.465Z,5.23
2019-04-30T04:33:49.623Z,4.80
2019-04-30T04:36:20.167Z,4.23
2019-04-30T04:38:50.633Z,5.03
2019-04-30T04:41:19.956Z,5.10
2019-04-30T04:43:50.588Z,5.70
2019-04-30T04:46:20.530Z,5.10
2019-04-30T04:48:49.722Z,4.90
2019-04-30T04:51:31.320Z,5.43
2019-04-30T04:53:50.094Z,5.37
2019-04-30T04:56:19.296Z,5.97
2019-04-30T04:58:50.193Z,6.23
2019-04-30T05:01:20.448Z,7.10
2019-04-30T05:03:49.542Z,6.90
2019-04-30T05:06:21.932Z,5.70
2019-04-30T05:08:49.379Z,6.40
2019-04-30T05:11:19.222Z,6.80
2019-04-30T05:13:49.031Z,7.17
2019-04-30T05:16:19.062Z,7.67
2019-04-30T05:18:48.807Z,6.63
2019-04-30T05:21:18.788Z,5.90
2019-04-30T05:23:49.285Z,7.20
2019-04-30T05:26:19.401Z,7.23
2019-04-30T05:28:52.769Z,6.30
2019-04-30T05:31:21.111Z,5.87
2019-04-30T05:33:50.149Z,6.50
2019-04-30T05:36:19.271Z,4.77
2019-04-30T05:38:48.721Z,6.30
2019-04-30T05:41:19.263Z,5.63
2019-04-30T05:43:48.841Z,5.80
2019-04-30T05:46:19.646Z,5.30
2019-04-30T05:48:49.532Z,5.57
2019-04-30T05:51:21.179Z,5.10
2019-04-30T05:53:49.411Z,5.00
2019-04-30T05:56:19.334Z,4.63
2019-04-30T05:58:49.456Z,4.70
2019-04-30T06:01:19.620Z,5.00
2019-04-30T06:03:48.740Z,4.47
2019-04-30T06:06:19.329Z,4.70
2019-04-30T06:09:04.664Z,4.10
2019-04-30T06:11:44.853Z,3.80
2019-04-30T06:14:48.856Z,4.63
2019-04-30T06:17:19.741Z,4.40
2019-04-30T06:19:51.178Z,3.73
2019-04-30T06:22:19.624Z,3.80
2019-04-30T06:24:49.521Z,3.90
2019-04-30T06:27:19.263Z,3.77
2019-04-30T06:29:49.106Z,3.77
2019-04-30T06:32:18.760Z,3.13
2019-04-30T06:34:49.775Z,3.47
2019-04-30T06:37:19.528Z,4.10
2019-04-30T06:39:50.080Z,3.50
2019-04-30T06:42:20.197Z,3.30
2019-04-30T06:44:50.902Z,2.93
2019-04-30T06:47:32.359Z,3.43
2019-04-30T06:49:51.355Z,3.57
2019-04-30T06:52:23.549Z,3.40
2019-04-30T06:54:52.787Z,4.10
2019-04-30T06:57:21.727Z,3.17
2019-04-30T06:59:56.611Z,3.03
2019-04-30T07:02:25.483Z,2.80
2019-04-30T07:04:54.355Z,3.47
2019-04-30T07:07:36.239Z,2.87
2019-04-30T07:10:05.097Z,2.63
2019-04-30T07:12:59.082Z,3.00
2019-04-30T07:15:29.597Z,2.70
2019-04-30T07:17:59.182Z,2.93
2019-04-30T07:20:41.196Z,3.23
2019-04-30T07:23:10.129Z,3.50
2019-04-30T07:25:39.164Z,3.10
2019-04-30T07:28:09.043Z,3.33
2019-04-30T07:30:39.626Z,2.87
2019-04-30T07:33:09.532Z,3.30
2019-04-30T07:35:40.565Z,3.00
2019-04-30T07:38:12.647Z,3.20
2019-04-30T07:40:41.541Z,2.93
2019-04-30T07:43:19.318Z,3.67
2019-04-30T07:45:49.587Z,3.30
2019-04-30T07:48:26.568Z,3.83
2019-04-30T07:50:55.224Z,3.70
2019-04-30T07:53:24.124Z,3.77
2019-04-30T07:56:24.272Z,3.97
2019-04-30T07:58:39.889Z,3.93
2019-04-30T08:01:16.581Z,4.13
2019-04-30T08:04:04.660Z,4.57
2019-04-30T08:06:33.787Z,4.40
2019-04-30T08:09:03.079Z,5.30
2019-04-30T08:11:43.420Z,4.87
2019-04-30T08:14:11.656Z,4.40
2019-04-30T08:16:40.594Z,5.47
2019-04-30T08:19:19.105Z,5.30
2019-04-30T08:21:48.575Z,4.87
2019-04-30T08:24:19.359Z,5.30
2019-04-30T08:26:53.557Z,5.67
2019-04-30T08:29:22.485Z,4.80
2019-04-30T08:32:03.841Z,5.50
2019-04-30T08:34:33.715Z,5.30
2019-04-30T08:37:12.931Z,6.30
2019-04-30T08:39:39.738Z,5.07
2019-04-30T08:42:09.046Z,6.63
2019-04-30T08:44:39.598Z,5.70
2019-04-30T08:47:09.700Z,5.93
2019-04-30T08:49:46.863Z,6.37
2019-04-30T08:52:43.580Z,6.83
2019-04-30T08:55:23.433Z,6.90
2019-04-30T08:58:09.852Z,7.70
2019-04-30T09:00:39.016Z,8.03
2019-04-30T09:03:09.384Z,9.40
2019-04-30T09:06:03.969Z,10.83
2019-04-30T09:08:33.219Z,10.57
2019-04-30T09:11:02.142Z,10.60
2019-04-30T09:13:31.100Z,11.43
2019-04-30T09:16:00.006Z,11.10
2019-04-30T09:18:34.728Z,11.33
2019-04-30T09:21:06.383Z,11.17
2019-04-30T09:23:47.769Z,10.43
2019-04-30T09:26:26.201Z,11.80
2019-04-30T09:29:00.970Z,11.40
2019-04-30T09:31:29.907Z,11.50
2019-04-30T09:34:15.285Z,12.10
2019-04-30T09:36:39.127Z,10.90
2019-04-30T09:39:08.995Z,11.23
2019-04-30T09:41:46.971Z,11.20
2019-04-30T09:44:15.938Z,11.00
2019-04-30T09:46:51.949Z,11.73
2019-04-30T09:49:21.897Z,10.17
2019-04-30T09:51:59.143Z,12.00
2019-04-30T09:54:32.236Z,11.80
2019-04-30T09:57:12.000Z,10.90
2019-04-30T09:59:53.032Z,11.00
2019-04-30T10:02:22.082Z,11.50
2019-04-30T10:05:06.888Z,10.60
2019-04-30T10:07:45.043Z,11.73
2019-04-30T10:10:25.272Z,12.50
2019-04-30T10:13:27.264Z,12.90
2019-04-30T10:16:06.464Z,12.10
2019-04-30T10:19:10.294Z,12.60
2019-04-30T10:21:40.174Z,12.50
2019-04-30T10:24:13.168Z,12.67
2019-04-30T10:26:40.989Z,12.00
2019-04-30T10:29:10.044Z,12.43
2019-04-30T10:31:39.145Z,13.10
2019-04-30T10:34:11.264Z,12.37
2019-04-30T10:36:41.488Z,13.93
2019-04-30T10:39:22.756Z,13.30
2019-04-30T10:42:04.355Z,13.67
2019-04-30T10:44:46.316Z,11.37
2019-04-30T10:47:36.408Z,11.40
2019-04-30T10:50:11.557Z,14.03
2019-04-30T10:52:51.561Z,14.10
2019-04-30T10:55:21.544Z,14.40
2019-04-30T10:57:53.639Z,15.57
2019-04-30T11:00:43.197Z,14.50
2019-04-30T11:03:19.995Z,15.43
2019-04-30T11:05:42.902Z,15.90
2019-04-30T11:08:21.099Z,15.70
2019-04-30T11:10:59.132Z,13.97
2019-04-30T11:13:31.109Z,13.80
2019-04-30T11:16:11.689Z,14.67
2019-04-30T11:18:46.217Z,17.03
2019-04-30T11:21:30.694Z,15.63
2019-04-30T11:24:36.448Z,16.67
2019-04-30T11:27:04.132Z,14.53
2019-04-30T11:29:39.948Z,14.97
2019-04-30T11:32:18.792Z,14.93
2019-04-30T11:35:07.441Z,13.10
2019-04-30T11:37:36.385Z,14.27
2019-04-30T11:40:15.525Z,14.80
2019-04-30T11:42:45.946Z,16.50
2019-04-30T11:45:21.243Z,17.00
2019-04-30T11:47:56.253Z,15.87
2019-04-30T11:50:31.439Z,18.10
2019-04-30T11:53:27.565Z,15.40
2019-04-30T11:55:53.824Z,14.20
2019-04-30T11:58:22.737Z,15.60
2019-04-30T12:01:03.551Z,13.07
2019-04-30T12:03:39.672Z,13.50
2019-04-30T12:06:08.684Z,13.63
2019-04-30T12:08:39.715Z,14.80
2019-04-30T12:11:16.151Z,19.40
2019-04-30T12:13:45.188Z,18.77
2019-04-30T12:16:19.995Z,18.37
2019-04-30T12:19:09.053Z,18.50
2019-04-30T12:21:38.243Z,18.13
2019-04-30T12:24:07.138Z,16.90
2019-04-30T12:26:36.486Z,17.03
2019-04-30T12:29:26.358Z,16.87
2019-04-30T12:32:00.514Z,19.77
2019-04-30T12:34:54.833Z,15.77
2019-04-30T12:37:24.756Z,17.00
2019-04-30T12:40:10.803Z,18.67
2019-04-30T12:42:41.512Z,17.10
2019-04-30T12:45:34.534Z,16.30
2019-04-30T12:48:10.606Z,16.27
2019-04-30T12:51:02.368Z,17.27
2019-04-30T12:53:50.109Z,17.70
2019-04-30T12:56:36.581Z,18.27
2019-04-30T12:59:23.957Z,19.80
2019-04-30T13:01:52.922Z,16.60
2019-04-30T13:04:25.117Z,19.80
2019-04-30T13:06:54.706Z,22.90
2019-04-30T13:09:30.736Z,20.67
2019-04-30T13:12:16.707Z,14.00
2019-04-30T13:14:54.701Z,16.50
2019-04-30T13:17:32.477Z,19.17
2019-04-30T13:20:01.413Z,22.20
2019-04-30T13:22:36.143Z,20.30
2019-04-30T13:25:06.335Z,19.90
2019-04-30T13:27:51.199Z,20.00
2019-04-30T13:30:39.634Z,18.80
2019-04-30T13:33:24.154Z,20.40
2019-04-30T13:36:05.658Z,19.87
2019-04-30T13:38:49.551Z,17.00
2019-04-30T13:41:52.193Z,18.10
2019-04-30T13:44:25.969Z,21.13
2019-04-30T13:47:10.619Z,20.40
2019-04-30T13:49:39.490Z,20.43
2019-04-30T13:52:17.373Z,22.17
2019-04-30T13:54:46.316Z,21.20
2019-04-30T13:57:36.529Z,18.20
2019-04-30T14:00:19.696Z,21.90
2019-04-30T14:03:22.371Z,21.67
2019-04-30T14:05:56.975Z,21.07
2019-04-30T14:08:44.252Z,22.00
2019-04-30T14:11:52.581Z,22.17
2019-04-30T14:14:42.730Z,21.30
2019-04-30T14:17:14.741Z,22.63
2019-04-30T14:19:49.505Z,22.37
2019-04-30T14:22:26.341Z,25.50
2019-04-30T14:24:55.277Z,25.13
2019-04-30T14:27:24.623Z,21.60
2019-04-30T14:29:53.476Z,21.47
2019-04-30T14:32:31.472Z,24.33
2019-04-30T14:35:09.099Z,23.67
2019-04-30T14:37:43.670Z,22.90
2019-04-30T14:40:20.308Z,23.37
2019-04-30T14:43:03.059Z,24.50
2019-04-30T14:45:42.642Z,23.97
2019-04-30T14:48:23.640Z,24.87
2019-04-30T14:50:51.848Z,24.33
2019-04-30T14:53:32.040Z,27.50
2019-04-30T14:56:23.082Z,27.87
2019-04-30T14:59:25.174Z,27.77
2019-04-30T15:02:29.651Z,27.57
2019-04-30T15:04:58.805Z,29.60
2019-04-30T15:07:29.432Z,28.97
2019-04-30T15:10:05.167Z,28.60
2019-04-30T15:12:52.216Z,26.13
2019-04-30T15:15:21.213Z,27.80
2019-04-30T15:17:50.124Z,26.70
2019-04-30T15:20:55.476Z,28.50
2019-04-30T15:23:58.685Z,29.97
2019-04-30T15:26:25.228Z,28.10
2019-04-30T15:28:53.889Z,29.60
2019-04-30T15:31:35.009Z,30.13
2019-04-30T15:34:11.151Z,28.90
2019-04-30T15:36:40.672Z,31.43
2019-04-30T15:39:39.339Z,30.70
2019-04-30T15:42:09.901Z,30.20
2019-04-30T15:44:53.944Z,28.80
2019-04-30T15:47:23.320Z,30.03
2019-04-30T15:50:05.264Z,31.00
2019-04-30T15:52:52.789Z,30.30
2019-04-30T15:55:27.749Z,31.57
2019-04-30T15:58:12.560Z,31.50
2019-04-30T16:00:56.463Z,30.27
2019-04-30T16:03:42.469Z,29.97
2019-04-30T16:06:11.415Z,32.47
2019-04-30T16:08:49.556Z,31.27
2019-04-30T16:11:49.290Z,31.87
2019-04-30T16:14:35.952Z,31.63
2019-04-30T16:17:11.869Z,33.47
2019-04-30T16:19:40.787Z,32.87
2019-04-30T16:22:16.776Z,33.37
2019-04-30T16:24:54.439Z,33.00
2019-04-30T16:27:40.836Z,31.83
2019-04-30T16:30:33.986Z,31.90
2019-04-30T16:33:19.455Z,32.57
2019-04-30T16:35:50.857Z,31.43
2019-04-30T16:38:20.908Z,32.80
2019-04-30T16:41:00.730Z,34.13
2019-04-30T16:43:59.870Z,32.80
2019-04-30T16:46:49.388Z,32.97
2019-04-30T16:49:24.332Z,33.37
2019-04-30T16:52:10.535Z,34.50
2019-04-30T16:54:51.828Z,32.50
2019-04-30T16:57:39.766Z,32.30
2019-04-30T17:00:10.512Z,32.87
2019-04-30T17:02:57.564Z,31.10
2019-04-30T17:05:40.889Z,31.20
2019-04-30T17:08:39.343Z,33.60
2019-04-30T17:12:04.062Z,33.50
2019-04-30T17:15:15.365Z,32.40
2019-04-30T17:17:53.620Z,31.93
2019-04-30T17:20:25.559Z,33.10
2019-04-30T17:22:54.473Z,32.43
2019-04-30T17:25:23.358Z,33.90
2019-04-30T17:28:04.576Z,33.80
2019-04-30T17:30:42.651Z,32.50
2019-04-30T17:33:16.545Z,34.70
2019-04-30T17:35:50.816Z,34.03
2019-04-30T17:38:19.684Z,33.50
2019-04-30T17:40:59.517Z,33.20
2019-04-30T17:43:55.858Z,34.70
2019-04-30T17:46:24.744Z,33.60
2019-04-30T17:48:56.686Z,33.73
2019-04-30T17:51:25.589Z,32.60
2019-04-30T17:54:15.924Z,34.20
2019-04-30T17:56:54.202Z,34.40
2019-04-30T17:59:31.395Z,34.00
2019-04-30T18:02:02.761Z,35.30
2019-04-30T18:04:37.440Z,34.10
2019-04-30T18:07:06.602Z,34.00
2019-04-30T18:09:42.428Z,32.50
2019-04-30T18:12:11.414Z,35.50
2019-04-30T18:14:46.124Z,35.03
2019-04-30T18:17:27.372Z,34.57
2019-04-30T18:20:13.992Z,34.57
2019-04-30T18:22:56.660Z,36.87
2019-04-30T18:25:51.159Z,34.40
2019-04-30T18:28:29.248Z,34.47
2019-04-30T18:31:00.194Z,35.90
2019-04-30T18:33:37.332Z,35.27
2019-04-30T18:36:06.319Z,36.80
2019-04-30T18:38:35.111Z,34.60
2019-04-30T18:41:04.001Z,35.10
2019-04-30T18:43:32.912Z,34.93
2019-04-30T18:46:10.747Z,33.97
2019-04-30T18:48:39.932Z,35.30
2019-04-30T18:51:23.700Z,35.40
2019-04-30T18:53:40.571Z,36.40
2019-04-30T18:56:19.156Z,35.97
2019-04-30T18:58:48.647Z,35.77
2019-04-30T19:01:20.136Z,34.13
2019-04-30T19:03:54.863Z,33.63
2019-04-30T19:06:26.166Z,38.03
2019-04-30T19:09:20.341Z,37.30
2019-04-30T19:12:08.531Z,37.07
2019-04-30T19:14:44.598Z,39.27
2019-04-30T19:17:51.023Z,37.70
2019-04-30T19:20:22.980Z,38.67
2019-04-30T19:22:51.886Z,37.50
2019-04-30T19:25:24.021Z,38.30
2019-04-30T19:28:13.651Z,39.00
2019-04-30T19:30:58.391Z,37.77
2019-04-30T19:33:33.841Z,37.00
2019-04-30T19:36:10.380Z,39.03
2019-04-30T19:38:39.220Z,37.53
2019-04-30T19:41:10.639Z,37.97
2019-04-30T19:43:39.200Z,38.30
2019-04-30T19:46:19.617Z,37.40
2019-04-30T19:48:50.408Z,38.93
2019-04-30T19:51:29.629Z,38.67
2019-04-30T19:53:59.872Z,37.70
2019-04-30T19:56:30.299Z,37.80
2019-04-30T19:59:04.810Z,36.23
2019-04-30T20:01:29.944Z,36.10
2019-04-30T20:03:58.883Z,33.30
2019-04-30T20:06:28.692Z,35.50
2019-04-30T20:08:58.778Z,33.63
2019-04-30T20:11:28.389Z,34.47
2019-04-30T20:13:57.301Z,33.37
2019-04-30T20:16:35.822Z,33.20
2019-04-30T20:19:06.089Z,32.90
2019-04-30T20:21:45.673Z,33.03
2019-04-30T20:24:08.616Z,30.70
2019-04-30T20:26:37.515Z,32.27
2019-04-30T20:29:06.409Z,32.80
2019-04-30T20:31:38.540Z,33.87
2019-04-30T20:34:09.199Z,32.10
2019-04-30T20:36:39.224Z,33.40
2019-04-30T20:39:16.717Z,31.60
2019-04-30T20:41:46.476Z,32.63
2019-04-30T20:44:21.280Z,31.53
2019-04-30T20:46:50.192Z,32.07
2019-04-30T20:49:20.131Z,30.93
2019-04-30T20:51:55.619Z,30.10
2019-04-30T20:54:29.084Z,31.37
2019-04-30T20:57:08.735Z,30.63
2019-04-30T20:59:38.806Z,29.90
2019-04-30T21:02:18.768Z,31.17
2019-04-30T21:04:49.443Z,29.30
2019-04-30T21:07:19.479Z,30.30
2019-04-30T21:09:58.291Z,29.77
2019-04-30T21:12:28.795Z,30.33
2019-04-30T21:14:59.544Z,28.57
2019-04-30T21:17:37.641Z,29.40
2019-04-30T21:20:06.798Z,27.63
2019-04-30T21:22:35.696Z,28.83
2019-04-30T21:25:09.928Z,27.70
2019-04-30T21:27:47.229Z,28.20
2019-04-30T21:30:16.708Z,29.20
2019-04-30T21:33:19.716Z,29.43
2019-04-30T21:35:54.657Z,28.23
2019-04-30T21:38:23.561Z,28.40
2019-04-30T21:40:52.505Z,29.77
2019-04-30T21:43:21.480Z,28.50
2019-04-30T21:45:50.330Z,27.77
2019-04-30T21:48:19.337Z,31.10
2019-04-30T21:50:49.732Z,31.30
2019-04-30T21:53:19.556Z,30.53
2019-04-30T21:55:49.738Z,30.60
2019-04-30T21:58:29.230Z,34.80
2019-04-30T22:01:24.694Z,36.07
2019-04-30T22:03:53.777Z,38.00
2019-04-30T22:06:24.684Z,38.90
2019-04-30T22:08:53.652Z,39.00
2019-04-30T22:11:30.248Z,37.67
2019-04-30T22:13:59.199Z,35.90
2019-04-30T22:16:40.233Z,35.73
2019-04-30T22:19:09.246Z,33.93
2019-04-30T22:21:42.447Z,34.77
2019-04-30T22:24:17.659Z,33.20
2019-04-30T22:26:48.544Z,31.97
2019-04-30T22:29:39.030Z,32.80
2019-04-30T22:32:09.495Z,31.20
2019-04-30T22:34:44.737Z,33.67
2019-04-30T22:37:13.635Z,31.50
2019-04-30T22:40:09.361Z,32.27
2019-04-30T22:42:44.240Z,32.80
2019-04-30T22:45:23.221Z,32.40
2019-04-30T22:47:52.093Z,33.77
2019-04-30T22:50:21.112Z,37.43
2019-04-30T22:52:49.964Z,37.43
2019-04-30T22:55:27.672Z,38.70
2019-04-30T22:57:56.557Z,49.90
2019-04-30T23:00:34.027Z,56.43
2019-04-30T23:03:05.888Z,47.10
2019-04-30T23:05:34.865Z,41.47
2019-04-30T23:08:03.795Z,36.40
2019-04-30T23:10:32.841Z,36.17
2019-04-30T23:13:08.148Z,35.60
2019-04-30T23:15:37.257Z,35.97
2019-04-30T23:18:06.188Z,33.67
2019-04-30T23:20:35.118Z,33.00
2019-04-30T23:23:04.225Z,28.50
2019-04-30T23:25:33.109Z,31.90
2019-04-30T23:28:07.208Z,32.43
2019-04-30T23:30:36.117Z,32.50
2019-04-30T23:33:13.896Z,32.90
2019-04-30T23:35:42.816Z,29.60
2019-04-30T23:38:11.681Z,29.63
2019-04-30T23:40:49.932Z,26.50
2019-04-30T23:43:24.724Z,26.73
2019-04-30T23:45:53.627Z,26.20
2019-04-30T23:48:26.601Z,26.33
2019-04-30T23:50:55.499Z,23.93
2019-04-30T23:53:24.386Z,23.87
2019-04-30T23:55:53.363Z,24.77
2019-04-30T23:58:22.258Z,23.13
